Time;durP1;ratioP1;P1;durP2;ratioP2;P2;SDS_P1;SDS_P2;PMS_P1;PMS_P2;Temp;Humidity;BMP_temperature;BMP_pressure;BME280_temperature;BME280_humidity;BME280_pressure;Samples;Min_cycle;Max_cycle;Signal;HPM_P1;HPM_P2
2023/06/27 00:02:03;;;;;;;15.85;6.20;;;;;;;22.63;73.61;100353.44;4971388;28;20398;-81
2023/06/27 00:04:28;;;;;;;10.07;5.75;;;;;;;22.66;73.33;100346.72;4971052;28;20835;-81
2023/06/27 00:06:54;;;;;;;10.60;6.65;;;;;;;22.64;73.01;100335.13;4971419;28;20027;-81
2023/06/27 00:09:19;;;;;;;10.65;6.07;;;;;;;22.50;72.87;100314.25;4970695;28;20062;-80
2023/06/27 00:11:45;;;;;;;8.77;5.38;;;;;;;22.61;73.18;100350.09;4971165;28;20023;-81
2023/06/27 00:14:13;;;;;;;8.63;5.45;;;;;;;22.61;72.82;100336.38;4971245;28;20031;-81
2023/06/27 00:16:39;;;;;;;14.73;6.80;;;;;;;22.61;72.48;100349.25;4970959;28;20031;-81
2023/06/27 00:19:05;;;;;;;10.68;6.20;;;;;;;22.66;72.34;100342.09;4970976;28;20113;-81
2023/06/27 00:21:32;;;;;;;12.00;6.03;;;;;;;22.68;71.96;100350.97;4971041;28;20480;-81
2023/06/27 00:23:58;;;;;;;15.90;6.10;;;;;;;22.65;71.45;100336.84;4970639;28;20030;-82
2023/06/27 00:26:24;;;;;;;9.55;5.80;;;;;;;22.68;71.46;100340.00;4971082;28;20034;-81
2023/06/27 00:28:49;;;;;;;8.50;6.35;;;;;;;22.64;71.39;100333.22;4983084;28;20023;-82
2023/06/27 00:31:15;;;;;;;12.48;6.00;;;;;;;22.65;71.39;100334.94;4983188;28;20030;-83
2023/06/27 00:33:40;;;;;;;14.20;7.10;;;;;;;22.67;71.41;100330.09;4996230;28;20110;-83
2023/06/27 00:36:06;;;;;;;10.70;6.57;;;;;;;22.61;71.14;100332.78;4995809;28;20023;-83
2023/06/27 00:38:32;;;;;;;14.00;6.20;;;;;;;22.66;71.44;100331.13;4989707;28;20031;-81
2023/06/27 00:40:57;;;;;;;15.98;6.18;;;;;;;22.53;71.10;100311.94;4986620;28;20057;-82
2023/06/27 00:43:23;;;;;;;11.70;6.20;;;;;;;22.60;70.92;100331.09;4982562;28;20027;-81
2023/06/27 00:45:49;;;;;;;21.90;8.45;;;;;;;22.65;71.09;100334.94;4958098;28;20019;-81
2023/06/27 00:48:15;;;;;;;12.00;6.40;;;;;;;22.61;71.24;100339.13;4971916;28;20054;-81
2023/06/27 00:50:43;;;;;;;10.45;6.30;;;;;;;22.63;70.67;100330.66;4971110;28;20042;-82
2023/06/27 00:53:10;;;;;;;12.48;6.90;;;;;;;22.52;70.92;100328.56;4971025;28;20050;-82
2023/06/27 00:55:39;;;;;;;10.75;6.47;;;;;;;22.58;70.75;100334.06;4970421;28;20471;-81
2023/06/27 00:58:09;;;;;;;8.48;6.03;;;;;;;22.59;70.35;100332.16;4970538;28;20035;-81
2023/06/27 01:00:35;;;;;;;12.30;5.68;;;;;;;22.61;70.67;100333.63;4971303;28;20026;-82
2023/06/27 01:03:02;;;;;;;10.27;6.18;;;;;;;22.60;70.46;100334.69;4973944;28;20479;-84
2023/06/27 01:05:29;;;;;;;13.43;5.97;;;;;;;22.46;70.89;100307.47;4973791;28;20181;-84
2023/06/27 01:08:13;;;;;;;15.68;6.72;;;;;;;22.54;70.97;100321.81;4973487;28;20077;-81
2023/06/27 01:10:46;;;;;;;11.80;6.43;;;;;;;22.54;70.96;100315.50;4973701;28;20097;-81
2023/06/27 01:13:23;;;;;;;10.48;6.00;;;;;;;22.55;71.09;100329.00;4956249;28;20033;-82
2023/06/27 01:15:49;;;;;;;14.90;6.55;;;;;;;22.50;71.09;100312.34;4973817;28;20031;-82
2023/06/27 01:18:16;;;;;;;16.13;6.90;;;;;;;22.55;70.74;100329.00;4973785;28;20946;-81
2023/06/27 01:20:45;;;;;;;12.88;6.78;;;;;;;22.51;70.92;100315.91;4974271;28;20035;-82
2023/06/27 01:23:25;;;;;;;17.33;7.20;;;;;;;22.51;70.90;100324.97;4973914;28;20038;-82
2023/06/27 01:26:01;;;;;;;19.73;7.32;;;;;;;22.50;70.60;100326.06;4973957;28;20045;-82
2023/06/27 01:28:26;;;;;;;15.35;6.97;;;;;;;22.50;70.70;100328.78;4973964;28;20027;-81
2023/06/27 01:30:52;;;;;;;12.15;7.32;;;;;;;22.41;70.39;100310.88;4974254;28;20093;-85
2023/06/27 01:33:32;;;;;;;11.48;6.70;;;;;;;22.50;70.47;100320.56;4973873;28;20023;-82
2023/06/27 01:36:04;;;;;;;16.98;6.65;;;;;;;22.48;70.09;100327.28;4979678;28;20049;-81
2023/06/27 01:38:42;;;;;;;11.00;5.82;;;;;;;22.47;70.15;100326.47;4978389;28;20042;-82
2023/06/27 01:41:12;;;;;;;14.13;6.43;;;;;;;22.46;70.11;100335.75;4955735;28;20061;-82
2023/06/27 01:43:40;;;;;;;16.83;7.57;;;;;;;22.37;70.33;100323.28;4973010;28;20046;-82
2023/06/27 01:46:07;;;;;;;10.73;6.28;;;;;;;22.42;69.55;100311.69;4972893;28;20514;-81
2023/06/27 01:48:33;;;;;;;13.93;6.43;;;;;;;22.41;69.82;100323.72;4972809;28;20051;-81
2023/06/27 01:50:59;;;;;;;9.90;5.75;;;;;;;22.47;69.25;100329.22;4973165;28;20039;-81
2023/06/27 01:53:24;;;;;;;13.38;8.60;;;;;;;22.50;68.88;100326.06;4972785;28;20097;-81
2023/06/27 01:55:50;;;;;;;12.65;6.57;;;;;;;22.47;68.71;100322.88;4972779;28;20030;-80
2023/06/27 01:58:16;;;;;;;14.52;6.78;;;;;;;22.52;68.39;100329.41;4973439;28;20042;-81
2023/06/27 02:00:41;;;;;;;13.52;6.70;;;;;;;22.46;68.43;100313.81;4973186;28;20069;-82
2023/06/27 02:03:06;;;;;;;14.02;7.13;;;;;;;22.49;68.33;100335.31;4975032;28;20026;-80
2023/06/27 02:05:32;;;;;;;10.10;6.28;;;;;;;22.47;67.95;100329.22;4973697;28;20479;-83
2023/06/27 02:07:57;;;;;;;10.05;6.13;;;;;;;22.41;67.64;100321.81;4972608;28;20034;-81
2023/06/27 02:10:23;;;;;;;14.43;7.68;;;;;;;22.49;68.00;100329.00;4972604;28;20511;-81
2023/06/27 02:12:50;;;;;;;16.63;6.88;;;;;;;22.41;68.25;100321.81;4971968;28;20097;-81
2023/06/27 02:15:16;;;;;;;15.95;6.72;;;;;;;22.38;68.62;100313.16;4972552;28;20027;-81
2023/06/27 02:17:41;;;;;;;13.90;7.10;;;;;;;22.36;68.88;100313.38;4972787;28;20077;-83
2023/06/27 02:20:07;;;;;;;11.25;7.47;;;;;;;22.32;69.05;100316.75;4972837;28;20046;-82
2023/06/27 02:22:32;;;;;;;11.63;6.85;;;;;;;22.21;69.23;100313.56;4956396;28;20022;-80
2023/06/27 02:24:58;;;;;;;14.07;7.30;;;;;;;22.32;68.98;100330.44;4973787;28;20438;-81
2023/06/27 02:27:24;;;;;;;17.17;7.82;;;;;;;22.27;69.10;100332.94;4984047;28;20031;-82
2023/06/27 02:29:49;;;;;;;10.90;7.18;;;;;;;22.20;68.67;100319.22;4958602;28;20050;-81
2023/06/27 02:32:15;;;;;;;9.82;6.20;;;;;;;22.23;68.57;100333.38;4979238;28;20083;-81
2023/06/27 02:34:40;;;;;;;10.20;6.82;;;;;;;22.20;68.33;100335.66;4979362;28;21028;-82
2023/06/27 02:37:05;;;;;;;12.90;6.25;;;;;;;22.19;68.39;100334.00;4974035;28;20161;-81
2023/06/27 02:39:31;;;;;;;37.28;8.50;;;;;;;22.22;68.58;100339.06;4973085;28;20026;-82
2023/06/27 02:41:57;;;;;;;16.25;7.25;;;;;;;22.21;68.24;100340.09;4972891;28;20023;-83
2023/06/27 02:44:23;;;;;;;16.63;7.03;;;;;;;22.18;68.08;100338.63;4973347;28;20031;-81
2023/06/27 02:46:48;;;;;;;11.70;7.00;;;;;;;22.20;68.14;100346.63;4973472;28;20034;-82
2023/06/27 02:49:13;;;;;;;10.25;5.75;;;;;;;22.22;68.18;100345.41;4973019;28;20055;-81
2023/06/27 02:51:39;;;;;;;12.32;6.35;;;;;;;22.14;67.57;100336.50;4973263;28;20030;-84
2023/06/27 02:54:04;;;;;;;9.57;6.80;;;;;;;22.24;67.48;100351.50;4975822;28;20034;-83
2023/06/27 02:56:30;;;;;;;12.82;6.85;;;;;;;22.23;66.90;100346.25;4979680;28;20037;-82
2023/06/27 02:58:55;;;;;;;16.33;6.95;;;;;;;22.26;66.92;100345.84;4973949;28;20027;-81
2023/06/27 03:01:21;;;;;;;13.88;6.68;;;;;;;22.30;66.85;100347.09;4966563;28;20091;-81
2023/06/27 03:03:47;;;;;;;15.10;6.45;;;;;;;22.30;66.52;100346.22;4976658;28;20018;-85
2023/06/27 03:06:12;;;;;;;8.80;5.78;;;;;;;22.30;66.34;100344.34;4989064;28;20030;-83
2023/06/27 03:08:38;;;;;;;16.70;6.43;;;;;;;22.33;66.55;100351.28;4973694;28;20483;-83
2023/06/27 03:11:04;;;;;;;12.48;7.03;;;;;;;22.31;66.29;100345.19;4972710;28;20425;-80
2023/06/27 03:13:29;;;;;;;12.55;6.68;;;;;;;22.38;66.03;100351.53;4972319;28;20535;-82
2023/06/27 03:15:55;;;;;;;11.48;6.85;;;;;;;22.42;66.19;100350.91;4971979;28;20042;-81
2023/06/27 03:18:20;;;;;;;12.27;6.70;;;;;;;22.40;65.94;100353.00;4954819;28;20487;-81
2023/06/27 03:20:46;;;;;;;10.55;7.05;;;;;;;22.37;65.66;100344.34;4954783;28;20062;-81
2023/06/27 03:23:11;;;;;;;15.20;7.15;;;;;;;22.45;65.51;100346.88;4973291;28;20026;-81
2023/06/27 03:25:36;;;;;;;13.10;6.18;;;;;;;22.54;65.39;100353.88;4971996;28;20027;-79
2023/06/27 03:28:02;;;;;;;18.45;7.63;;;;;;;22.51;65.18;100348.78;4972675;28;20034;-80
2023/06/27 03:30:28;;;;;;;9.82;6.57;;;;;;;22.49;64.76;100338.06;4975929;28;20035;-81
2023/06/27 03:32:54;;;;;;;14.88;6.32;;;;;;;22.46;64.47;100322.03;4976621;28;20031;-82
2023/06/27 03:35:20;;;;;;;16.98;8.07;;;;;;;22.65;64.44;100356.03;4972725;28;20538;-81
2023/06/27 03:37:45;;;;;;;14.05;7.35;;;;;;;22.69;63.95;100349.91;4971473;28;20027;-81
2023/06/27 03:40:11;;;;;;;16.20;7.68;;;;;;;22.75;63.92;100348.25;4971372;28;20042;-85
2023/06/27 03:42:36;;;;;;;30.80;8.07;;;;;;;22.80;63.74;100353.94;4972008;28;20029;-84
2023/06/27 03:45:02;;;;;;;11.13;6.80;;;;;;;22.84;63.68;100354.38;4971238;28;20062;-85
2023/06/27 03:47:29;;;;;;;14.90;7.25;;;;;;;22.89;63.43;100363.63;4970487;28;20137;-87
2023/06/27 03:49:54;;;;;;;17.02;7.28;;;;;;;22.77;63.16;100324.19;4971322;28;20050;-83
2023/06/27 03:52:20;;;;;;;10.50;7.28;;;;;;;22.93;63.21;100347.59;4971333;28;20151;-84
2023/06/27 03:54:45;;;;;;;10.77;7.53;;;;;;;22.99;63.64;100341.28;4971951;28;20034;-86
2023/06/27 03:57:11;;;;;;;17.08;7.95;;;;;;;22.96;63.20;100341.69;4972939;28;20510;-85
2023/06/27 03:59:36;;;;;;;23.35;9.57;;;;;;;23.05;63.19;100357.72;4972244;28;20087;-85
2023/06/27 04:02:02;;;;;;;21.30;8.77;;;;;;;23.08;62.83;100350.97;4974077;28;20018;-85
2023/06/27 04:04:27;;;;;;;10.75;6.45;;;;;;;23.14;62.54;100366.59;4971680;28;20062;-86
2023/06/27 04:06:52;;;;;;;19.20;6.68;;;;;;;23.17;62.56;100360.66;4971420;28;20027;-85
2023/06/27 04:09:18;;;;;;;15.32;8.02;;;;;;;23.20;62.51;100371.22;4971687;28;20088;-84
2023/06/27 04:11:43;;;;;;;18.08;7.43;;;;;;;23.25;62.58;100365.94;4972212;28;20034;-86
2023/06/27 04:14:09;;;;;;;34.42;7.60;;;;;;;23.23;62.73;100365.31;4970778;28;20063;-82
2023/06/27 04:16:34;;;;;;;15.52;6.55;;;;;;;23.31;61.98;100356.84;4970799;28;20030;-84
2023/06/27 04:19:00;;;;;;;15.50;6.22;;;;;;;23.41;61.77;100356.44;4971540;28;20030;-84
2023/06/27 04:21:25;;;;;;;18.33;6.53;;;;;;;23.53;61.55;100366.53;4971026;28;20030;-85
2023/06/27 04:23:54;;;;;;;21.25;7.15;;;;;;;23.58;61.37;100358.50;4970846;28;20034;-83
2023/06/27 04:26:19;;;;;;;25.88;7.57;;;;;;;23.65;60.98;100363.97;4979103;28;20491;-82
2023/06/27 04:28:48;;;;;;;21.48;8.60;;;;;;;23.70;60.93;100362.25;4960556;28;20037;-81
2023/06/27 04:31:14;;;;;;;26.67;7.03;;;;;;;23.80;60.80;100368.13;4970599;28;20038;-81
2023/06/27 04:33:40;;;;;;;19.20;7.00;;;;;;;23.89;60.12;100370.63;4978630;28;20030;-84
2023/06/27 04:36:06;;;;;;;20.05;6.68;;;;;;;23.95;59.96;100369.75;4971489;28;20056;-82
2023/06/27 04:38:39;;;;;;;15.55;8.25;;;;;;;24.01;59.63;100372.50;4970161;28;20035;-79
2023/06/27 04:41:05;;;;;;;12.52;7.43;;;;;;;24.07;59.64;100374.38;4970167;28;20031;-88
2023/06/27 04:43:32;;;;;;;12.35;6.43;;;;;;;24.11;59.03;100369.31;4971498;28;20038;-85
2023/06/27 04:46:01;;;;;;;12.73;6.55;;;;;;;24.12;58.66;100363.59;4970157;28;20023;-81
2023/06/27 04:48:27;;;;;;;51.17;10.55;;;;;;;24.22;58.97;100371.34;4969574;28;20121;-81
2023/06/27 04:50:53;;;;;;;10.80;6.72;;;;;;;24.27;58.69;100379.81;4902935;28;20483;-84
2023/06/27 04:53:20;;;;;;;26.88;7.30;;;;;;;24.31;58.68;100359.88;4966666;28;20252;-87
2023/06/27 04:55:50;;;;;;;23.75;7.75;;;;;;;24.30;58.29;100362.88;4972094;28;20039;-90
2023/06/27 04:58:16;;;;;;;25.90;6.82;;;;;;;24.49;58.28;100372.91;4959336;28;20038;-87
2023/06/27 05:00:43;;;;;;;24.83;7.80;;;;;;;24.53;57.79;100379.63;4973866;28;20062;-88
2023/06/27 05:03:08;;;;;;;12.82;6.22;;;;;;;24.61;57.34;100378.53;4972853;28;20534;-83
2023/06/27 05:05:34;;;;;;;23.48;6.28;;;;;;;24.64;57.02;100376.19;4973864;28;20026;-84
2023/06/27 05:08:06;;;;;;;25.42;8.32;;;;;;;24.69;56.33;100372.75;4988800;28;20058;-87
2023/06/27 05:10:32;;;;;;;14.40;6.72;;;;;;;24.78;56.00;100372.28;4989488;28;20030;-82
2023/06/27 05:12:58;;;;;;;16.52;5.93;;;;;;;24.81;55.29;100371.84;4988511;28;20035;-86
2023/06/27 05:15:24;;;;;;;24.73;6.88;;;;;;;24.84;54.78;100376.06;4978446;28;20023;-85
2023/06/27 05:18:08;;;;;;;21.83;6.38;;;;;;;24.92;54.85;100382.13;4991908;28;20038;-88
2023/06/27 05:20:34;;;;;;;43.00;9.73;;;;;;;24.89;54.45;100359.75;4985462;28;20029;-83
2023/06/27 05:23:05;;;;;;;41.15;9.00;;;;;;;25.05;54.64;100372.91;4989348;28;20023;-82
2023/06/27 05:25:30;;;;;;;33.97;8.25;;;;;;;25.11;54.49;100376.69;4966326;28;20039;-81
2023/06/27 05:27:56;;;;;;;62.47;11.73;;;;;;;25.28;53.20;100388.81;4971757;28;20054;-83
2023/06/27 05:30:21;;;;;;;30.42;7.07;;;;;;;25.43;52.69;100397.56;4970892;28;20066;-81
2023/06/27 05:32:47;;;;;;;32.80;7.93;;;;;;;25.31;51.76;100367.19;4969970;28;20064;-85
2023/06/27 05:35:12;;;;;;;16.92;5.45;;;;;;;25.50;51.22;100392.88;4969676;28;20031;-79
2023/06/27 05:37:38;;;;;;;13.02;5.53;;;;;;;25.53;51.30;100388.81;4969728;28;20034;-83
2023/06/27 05:40:04;;;;;;;66.38;11.27;;;;;;;25.66;51.47;100396.91;4969852;28;20410;-84
2023/06/27 05:42:29;;;;;;;37.22;6.90;;;;;;;25.73;51.39;100392.19;4969117;28;20022;-88
2023/06/27 05:44:55;;;;;;;37.08;7.97;;;;;;;25.83;51.20;100387.84;4968781;28;20066;-83
2023/06/27 05:47:20;;;;;;;14.88;5.57;;;;;;;25.95;49.75;100396.16;4969579;28;20034;-86
2023/06/27 05:49:47;;;;;;;16.80;5.35;;;;;;;26.11;49.90;100389.19;4972830;28;20054;-81
2023/06/27 05:52:13;;;;;;;34.58;8.02;;;;;;;26.11;49.45;100376.25;4973100;28;20015;-80
2023/06/27 05:54:38;;;;;;;40.22;7.85;;;;;;;26.30;49.05;100399.97;4974061;28;20030;-92
2023/06/27 05:57:04;;;;;;;23.77;5.20;;;;;;;26.41;48.19;100395.59;4959831;28;20045;-93
2023/06/27 05:59:30;;;;;;;22.95;6.35;;;;;;;26.46;47.21;100388.31;4961752;28;20089;-92
2023/06/27 06:01:55;;;;;;;22.23;4.82;;;;;;;26.56;45.65;100389.66;4963141;28;20038;-92
2023/06/27 06:04:21;;;;;;;23.95;5.15;;;;;;;26.58;45.62;100384.72;4962380;28;20034;-91
2023/06/27 06:06:46;;;;;;;19.92;6.07;;;;;;;26.65;46.20;100386.34;4961018;28;20027;-93
2023/06/27 06:09:12;;;;;;;29.15;4.78;;;;;;;26.69;45.27;100375.66;4961793;28;20038;-92
2023/06/27 06:11:57;;;;;;;61.83;9.05;;;;;;;26.87;46.13;100384.75;4980490;28;20041;-93
2023/06/27 06:14:23;;;;;;;50.30;8.38;;;;;;;27.03;46.30;100386.78;4914558;29;20044;-93
2023/06/27 06:16:48;;;;;;;28.60;5.95;;;;;;;27.08;46.20;100375.06;4927556;29;20097;-91
2023/06/27 06:19:14;;;;;;;35.53;8.40;;;;;;;27.18;46.54;100379.97;4920284;29;20028;-93
2023/06/27 06:21:40;;;;;;;21.80;5.28;;;;;;;27.37;46.28;100385.13;4922280;29;20020;-91
2023/06/27 06:24:08;;;;;;;19.27;5.50;;;;;;;27.44;45.11;100390.56;4923197;29;20118;-92
2023/06/27 06:26:35;;;;;;;69.82;12.10;;;;;;;27.54;44.71;100388.06;4898644;29;20033;-84
2023/06/27 06:29:01;;;;;;;24.58;6.75;;;;;;;27.63;44.27;100392.13;4913067;29;20111;-82
2023/06/27 06:31:27;;;;;;;27.30;5.70;;;;;;;27.74;43.94;100396.78;4911570;29;20032;-83
2023/06/27 06:33:53;;;;;;;45.20;8.73;;;;;;;27.85;43.35;100384.91;4911557;29;20119;-83
2023/06/27 06:36:19;;;;;;;41.25;7.07;;;;;;;27.93;41.34;100383.66;4911417;29;20199;-83
2023/06/27 06:38:44;;;;;;;9.02;4.20;;;;;;;27.89;40.11;100375.00;4911803;29;20525;-81
2023/06/27 06:41:10;;;;;;;16.35;5.22;;;;;;;27.98;40.08;100372.72;4911972;29;20040;-80
2023/06/27 06:43:36;;;;;;;30.27;5.32;;;;;;;28.02;39.69;100377.50;4912988;29;20032;-87
2023/06/27 06:46:01;;;;;;;27.35;5.47;;;;;;;28.07;39.71;100383.16;4963644;28;20043;-86
2023/06/27 06:48:27;;;;;;;16.70;5.18;;;;;;;28.07;40.95;100383.16;4973353;28;20065;-81
2023/06/27 06:50:53;;;;;;;37.10;10.98;;;;;;;28.16;40.97;100385.56;4972299;28;20057;-78
2023/06/27 06:53:19;;;;;;;26.60;5.07;;;;;;;28.25;39.28;100389.63;4972043;28;20045;-82
2023/06/27 06:55:46;;;;;;;24.50;5.60;;;;;;;28.30;39.80;100379.50;4971435;28;20054;-82
2023/06/27 06:58:11;;;;;;;8.20;4.18;;;;;;;28.39;39.20;100389.09;4971457;28;20019;-80
2023/06/27 07:00:37;;;;;;;54.97;8.30;;;;;;;28.36;39.28;100385.97;4972384;28;20038;-86
2023/06/27 07:03:08;;;;;;;8.18;3.70;;;;;;;28.39;37.66;100388.25;4973389;28;20487;-83
2023/06/27 07:05:34;;;;;;;7.78;4.25;;;;;;;28.38;38.61;100383.78;4957764;28;20027;-82
2023/06/27 07:08:00;;;;;;;11.98;5.07;;;;;;;28.33;38.01;100383.69;4975184;28;20104;-84
2023/06/27 07:10:25;;;;;;;14.25;3.85;;;;;;;28.39;37.07;100386.31;4977860;28;20463;-84
2023/06/27 07:12:51;;;;;;;20.98;3.92;;;;;;;28.39;36.42;100382.69;4975097;28;20541;-86
2023/06/27 07:15:17;;;;;;;12.65;4.75;;;;;;;28.48;36.12;100395.06;4980248;28;20058;-87
2023/06/27 07:17:43;;;;;;;15.15;5.68;;;;;;;28.44;36.75;100369.00;4993199;28;20050;-88
2023/06/27 07:20:09;;;;;;;6.93;3.88;;;;;;;28.55;36.48;100388.28;4986758;28;20023;-85
2023/06/27 07:22:34;;;;;;;16.67;5.22;;;;;;;28.55;36.55;100377.22;4971428;28;20027;-86
2023/06/27 07:25:00;;;;;;;11.60;3.90;;;;;;;28.70;37.25;100387.75;4971319;28;20027;-85
2023/06/27 07:27:25;;;;;;;19.13;4.13;;;;;;;28.78;36.99;100387.34;4954381;28;20066;-85
2023/06/27 07:29:51;;;;;;;45.13;11.23;;;;;;;28.83;36.65;100389.38;4975795;28;20396;-85
2023/06/27 07:32:16;;;;;;;21.95;4.78;;;;;;;28.92;34.53;100380.41;4973073;28;20494;-85
2023/06/27 07:34:42;;;;;;;13.90;4.38;;;;;;;29.02;35.06;100394.41;4971295;28;20022;-85
2023/06/27 07:37:07;;;;;;;7.60;3.05;;;;;;;29.05;34.49;100393.91;4954050;28;20045;-86
2023/06/27 07:39:32;;;;;;;15.45;6.78;;;;;;;29.09;34.21;100395.09;4970642;28;20101;-85
2023/06/27 07:41:58;;;;;;;12.10;4.95;;;;;;;29.09;34.01;100389.56;4971476;28;20031;-85
2023/06/27 07:44:24;;;;;;;20.65;4.53;;;;;;;29.12;34.02;100400.13;4972070;28;21033;-86
2023/06/27 07:46:50;;;;;;;15.40;8.30;;;;;;;29.12;34.22;100396.53;4971649;28;20113;-85
2023/06/27 07:49:15;;;;;;;186.60;33.13;;;;;;;29.10;34.31;100396.78;4971640;28;20213;-85
2023/06/27 07:51:41;;;;;;;32.60;6.00;;;;;;;29.16;35.05;100390.25;4971093;28;20030;-85
2023/06/27 07:54:07;;;;;;;27.38;5.75;;;;;;;29.26;35.12;100399.84;4970813;28;21089;-85
2023/06/27 07:56:32;;;;;;;15.85;5.43;;;;;;;29.31;35.00;100394.38;4970656;28;20117;-84
2023/06/27 07:58:59;;;;;;;25.83;5.20;;;;;;;29.38;34.95;100390.34;4970957;28;20035;-84
2023/06/27 08:01:25;;;;;;;16.23;3.60;;;;;;;29.45;34.51;100393.75;4971027;28;20034;-85
2023/06/27 08:03:50;;;;;;;31.13;4.35;;;;;;;29.49;34.81;100386.63;4971165;28;20034;-85
2023/06/27 08:06:16;;;;;;;32.60;12.38;;;;;;;29.63;34.65;100389.88;4972740;28;20534;-84
2023/06/27 08:08:41;;;;;;;15.73;6.60;;;;;;;29.68;34.58;100385.25;4972597;28;20749;-85
2023/06/27 08:11:07;;;;;;;13.98;5.18;;;;;;;29.77;34.99;100396.72;4972173;28;20055;-85
2023/06/27 08:13:34;;;;;;;14.32;4.18;;;;;;;29.86;34.01;100398.00;4989429;28;20448;-87
2023/06/27 08:15:59;;;;;;;79.28;16.08;;;;;;;29.87;34.22;100391.38;4991118;28;20026;-86
2023/06/27 08:18:25;;;;;;;15.68;4.18;;;;;;;29.93;33.74;100387.56;4956571;28;20039;-86
2023/06/27 08:20:50;;;;;;;15.00;6.22;;;;;;;29.97;34.55;100388.69;4971475;28;20027;-86
2023/06/27 08:23:16;;;;;;;8.57;4.07;;;;;;;30.03;33.64;100384.91;4971156;28;20113;-86
2023/06/27 08:25:41;;;;;;;8.63;4.13;;;;;;;30.05;33.50;100393.81;4971195;28;20089;-85
2023/06/27 08:28:07;;;;;;;9.13;3.63;;;;;;;30.00;33.95;100382.63;4971509;28;20158;-85
2023/06/27 08:30:34;;;;;;;22.08;4.68;;;;;;;30.06;33.87;100394.66;4971525;28;20055;-85
2023/06/27 08:33:00;;;;;;;17.45;5.30;;;;;;;30.09;34.67;100400.50;4971118;28;20023;-86
2023/06/27 08:35:25;;;;;;;19.90;5.68;;;;;;;30.06;34.67;100389.94;4970898;28;20421;-86
2023/06/27 08:37:51;;;;;;;63.08;8.85;;;;;;;29.93;34.95;100397.81;4972690;28;20117;-85
2023/06/27 08:40:22;;;;;;;37.58;7.43;;;;;;;29.93;34.71;100400.59;4971534;28;20035;-84
2023/06/27 08:42:47;;;;;;;20.42;5.82;;;;;;;29.86;33.92;100398.00;4970986;28;20030;-86
2023/06/27 08:45:13;;;;;;;10.65;3.80;;;;;;;29.75;34.51;100398.09;4971279;28;20519;-85
2023/06/27 08:47:41;;;;;;;9.43;4.32;;;;;;;29.74;34.24;100407.50;4971685;28;20034;-86
2023/06/27 08:50:11;;;;;;;13.48;3.53;;;;;;;29.81;34.28;100406.22;4970931;28;20063;-87
2023/06/27 08:52:42;;;;;;;12.98;3.42;;;;;;;29.64;33.58;100409.03;4971515;28;20522;-86
2023/06/27 08:55:30;;;;;;;37.83;7.20;;;;;;;29.78;34.22;100403.97;4971292;28;20113;-86
2023/06/27 08:57:58;;;;;;;14.23;4.03;;;;;;;29.85;34.17;100403.78;4971406;28;20027;-85
2023/06/27 09:00:26;;;;;;;12.68;3.75;;;;;;;29.68;33.95;100381.63;4974570;28;20039;-84
2023/06/27 09:02:52;;;;;;;11.73;4.25;;;;;;;29.75;33.44;100393.38;4978648;28;20380;-86
2023/06/27 09:05:18;;;;;;;7.15;3.33;;;;;;;29.71;32.98;100383.88;4979683;28;20034;-84
2023/06/27 09:07:44;;;;;;;16.85;3.75;;;;;;;29.55;33.40;100365.34;4975947;28;20114;-85
2023/06/27 09:10:10;;;;;;;8.45;5.03;;;;;;;29.64;34.38;100361.88;4990149;28;20023;-87
2023/06/27 09:12:39;;;;;;;9.57;3.22;;;;;;;29.87;33.12;100385.81;4993790;28;20022;-89
2023/06/27 09:15:05;;;;;;;7.78;3.47;;;;;;;29.93;32.49;100372.84;4977335;28;20027;-86
2023/06/27 09:17:31;;;;;;;53.88;7.20;;;;;;;29.93;31.96;100370.91;4970779;28;20049;-87
2023/06/27 09:19:57;;;;;;;12.02;4.00;;;;;;;29.85;32.18;100376.91;4971127;28;20368;-86
2023/06/27 09:22:23;;;;;;;5.28;3.28;;;;;;;29.84;32.51;100388.25;4955822;28;20038;-86
2023/06/27 09:24:49;;;;;;;15.05;4.63;;;;;;;29.85;33.02;100388.00;4957291;28;20026;-86
2023/06/27 09:27:35;;;;;;;10.48;3.08;;;;;;;29.90;33.59;100379.75;4974863;28;20027;-86
2023/06/27 09:30:02;;;;;;;5.57;2.97;;;;;;;29.75;34.05;100353.72;4974958;28;20046;-85
2023/06/27 09:32:28;;;;;;;20.52;3.78;;;;;;;29.85;32.63;100365.81;4975562;28;20041;-85
2023/06/27 09:34:53;;;;;;;12.88;3.72;;;;;;;29.76;33.63;100361.75;4976258;28;20023;-85
2023/06/27 09:37:30;;;;;;;17.23;4.40;;;;;;;29.91;34.97;100353.69;4978106;28;20090;-86
2023/06/27 09:39:55;;;;;;;11.23;3.78;;;;;;;30.05;34.91;100373.56;4979093;28;20042;-83
2023/06/27 09:42:21;;;;;;;6.22;3.83;;;;;;;30.08;34.77;100361.94;4983277;28;20023;-84
2023/06/27 09:44:46;;;;;;;7.43;3.33;;;;;;;30.08;34.01;100376.66;4976744;28;20042;-85
2023/06/27 09:47:12;;;;;;;8.80;4.43;;;;;;;30.03;35.41;100368.25;4974921;28;20038;-85
2023/06/27 09:49:43;;;;;;;33.25;6.03;;;;;;;30.03;37.07;100373.00;4996354;28;20055;-85
2023/06/27 09:52:11;;;;;;;10.90;5.53;;;;;;;29.96;37.24;100358.47;4998837;28;20066;-86
2023/06/27 09:54:45;;;;;;;21.73;4.47;;;;;;;30.06;36.14;100370.50;5000355;28;20023;-88
2023/06/27 09:57:16;;;;;;;7.18;3.47;;;;;;;30.09;36.61;100367.22;4999455;28;20041;-85
2023/06/27 09:59:42;;;;;;;9.60;4.23;;;;;;;30.28;35.12;100359.41;4997134;28;20053;-86
2023/06/27 10:02:15;;;;;;;33.75;5.28;;;;;;;30.46;33.90;100369.31;4993283;28;20022;-85
2023/06/27 10:04:41;;;;;;;14.32;4.05;;;;;;;30.33;34.84;100367.78;4978694;28;20031;-86
2023/06/27 10:07:08;;;;;;;109.18;11.90;;;;;;;30.38;34.23;100364.22;4994308;28;20031;-87
2023/06/27 10:09:37;;;;;;;16.45;4.00;;;;;;;30.54;34.08;100368.88;4993355;28;20026;-84
2023/06/27 10:12:03;;;;;;;4.20;2.97;;;;;;;30.39;34.04;100363.16;4978141;28;20081;-85
2023/06/27 10:14:29;;;;;;;8.38;4.03;;;;;;;30.58;34.23;100356.97;4974095;28;20113;-85
2023/06/27 10:16:55;;;;;;;13.25;3.78;;;;;;;30.89;34.42;100383.09;4956634;28;20122;-87
2023/06/27 10:19:21;;;;;;;15.30;3.58;;;;;;;30.55;33.65;100340.03;4973880;28;20171;-85
2023/06/27 10:21:48;;;;;;;10.88;3.58;;;;;;;30.84;34.25;100346.94;4973884;28;20406;-86
2023/06/27 10:24:14;;;;;;;13.68;4.20;;;;;;;31.09;33.70;100366.66;4973257;28;20113;-85
2023/06/27 10:26:48;;;;;;;7.43;3.97;;;;;;;31.23;32.87;100362.31;4973689;28;20031;-87
2023/06/27 10:29:14;;;;;;;20.75;4.10;;;;;;;31.42;32.76;100350.75;4973124;28;20027;-86
2023/06/27 10:31:49;;;;;;;49.22;6.53;;;;;;;31.52;33.53;100364.75;4974063;28;20106;-86
2023/06/27 10:34:22;;;;;;;12.18;3.63;;;;;;;31.37;33.15;100361.84;4956034;28;20099;-86
2023/06/27 10:37:01;;;;;;;19.00;4.13;;;;;;;31.33;34.10;100360.69;4973138;28;20033;-86
2023/06/27 10:39:36;;;;;;;9.05;3.65;;;;;;;31.43;32.32;100363.56;4973463;28;20031;-87
2023/06/27 10:42:11;;;;;;;8.77;2.95;;;;;;;31.42;32.39;100359.94;4972617;28;20026;-87
2023/06/27 10:44:56;;;;;;;7.07;3.35;;;;;;;31.28;32.08;100353.19;4972848;28;20062;-85
2023/06/27 10:47:22;;;;;;;8.18;3.83;;;;;;;31.21;33.47;100360.91;4975278;28;20058;-86
2023/06/27 10:49:49;;;;;;;8.55;3.47;;;;;;;31.19;32.65;100333.34;4974065;28;20086;-87
2023/06/27 10:52:22;;;;;;;13.70;4.32;;;;;;;31.44;32.81;100351.31;4973757;28;20030;-87
2023/06/27 10:55:19;;;;;;;9.70;3.83;;;;;;;31.50;32.60;100356.66;4974206;28;20027;-86
2023/06/27 10:57:48;;;;;;;8.55;3.60;;;;;;;31.32;33.21;100348.72;4977182;28;20475;-84
2023/06/27 11:00:33;;;;;;;10.23;4.15;;;;;;;31.14;33.37;100354.72;4960873;28;20023;-84
2023/06/27 11:03:03;;;;;;;21.17;4.95;;;;;;;31.18;33.60;100359.50;4970066;28;20030;-86
2023/06/27 11:05:44;;;;;;;27.33;5.40;;;;;;;31.51;33.81;100357.50;4995926;28;20023;-88
2023/06/27 11:08:13;;;;;;;9.50;3.70;;;;;;;31.79;34.34;100354.34;4984712;28;20141;-88
2023/06/27 11:10:52;;;;;;;12.65;3.65;;;;;;;31.97;33.37;100353.84;4973842;28;20041;-86
2023/06/27 11:13:24;;;;;;;13.25;4.40;;;;;;;32.08;32.92;100352.81;4977426;28;20025;-87
2023/06/27 11:15:51;;;;;;;;;;;;;;;32.37;32.04;100360.69;4982220;28;20109;-86
2023/06/27 11:18:18;;;;;;;28.45;4.38;;;;;;;32.53;31.26;100360.47;4979853;28;19910;-88
2023/06/27 11:20:45;;;;;;;10.27;3.22;;;;;;;32.16;30.59;100357.03;4980720;28;20035;-86